Terminal Aerodrome Forecast
Issued by NWS Duluth, MN

Home | Current Version | Previous Version | Text Only | Print | Product List | Glossary On
Versions: 1 2 3 4 5 6 7 8 9 10 11 12 13 14 15 16 17 18 19 20 21 22 23 24 25 26 27 28 29
000
FTUS43 KDLH 281100
TAFINL
TAF
KINL 281123Z 2812/0112 20005KT P6SM SCT200
     FM281900 20011KT P6SM BKN150
     FM010100 21007KT 6SM -SN BKN025 OVC050
     FM010500 22007KT P6SM BKN030 OVC040
     FM010800 23009KT P6SM SCT035 OVC060=

USA.gov is the U.S. government's official web portal to all federal, state and local government web resources and services.